sensor_id;sensor_type;location;lat;lon;timestamp;noise_LAeq;noise_LA_min;noise_LA_max;noise_LA01;noise_LA95
45651;Laerm;31365;48.858;8.530;2023-01-04T00:01:23;40.60;35.66;44.87;;
45651;Laerm;31365;48.858;8.530;2023-01-04T00:03:53;39.94;35.04;42.65;;
45651;Laerm;31365;48.858;8.530;2023-01-04T00:06:22;53.74;34.69;75.97;;
45651;Laerm;31365;48.858;8.530;2023-01-04T00:08:50;41.05;34.69;44.62;;
45651;Laerm;31365;48.858;8.530;2023-01-04T00:11:21;39.99;35.94;42.65;;
45651;Laerm;31365;48.858;8.530;2023-01-04T00:13:55;39.76;34.69;42.29;;
45651;Laerm;31365;48.858;8.530;2023-01-04T00:21:38;47.69;35.36;69.90;;
45651;Laerm;31365;48.858;8.530;2023-01-04T00:24:08;52.23;35.94;71.92;;
45651;Laerm;31365;48.858;8.530;2023-01-04T00:26:36;50.96;34.69;69.65;;
45651;Laerm;31365;48.858;8.530;2023-01-04T00:29:10;40.00;32.93;43.54;;
45651;Laerm;31365;48.858;8.530;2023-01-04T00:31:40;39.74;34.31;43.99;;
45651;Laerm;31365;48.858;8.530;2023-01-04T00:43:54;38.94;31.68;44.27;;
45651;Laerm;31365;48.858;8.530;2023-01-04T00:46:22;39.05;33.90;43.33;;
45651;Laerm;31365;48.858;8.530;2023-01-04T00:48:51;52.72;35.36;74.33;;
45651;Laerm;31365;48.858;8.530;2023-01-04T00:51:27;38.81;33.44;41.46;;
45651;Laerm;31365;48.858;8.530;2023-01-04T00:53:56;38.74;33.44;41.53;;
45651;Laerm;31365;48.858;8.530;2023-01-04T00:56:24;38.68;33.44;43.54;;
45651;Laerm;31365;48.858;8.530;2023-01-04T01:08:10;48.04;33.44;70.68;;
45651;Laerm;31365;48.858;8.530;2023-01-04T01:10:54;38.94;32.35;41.38;;
45651;Laerm;31365;48.858;8.530;2023-01-04T01:13:22;39.14;32.93;43.81;;
45651;Laerm;31365;48.858;8.530;2023-01-04T01:15:51;39.19;34.31;44.19;;
45651;Laerm;31365;48.858;8.530;2023-01-04T01:18:20;39.41;33.44;44.62;;
45651;Laerm;31365;48.858;8.530;2023-01-04T01:20:48;39.33;33.44;43.29;;
45651;Laerm;31365;48.858;8.530;2023-01-04T01:23:18;39.36;34.69;43.19;;
45651;Laerm;31365;48.858;8.530;2023-01-04T01:25:47;39.04;32.93;41.53;;
45651;Laerm;31365;48.858;8.530;2023-01-04T01:28:15;39.18;33.90;41.68;;
45651;Laerm;31365;48.858;8.530;2023-01-04T01:30:44;39.94;34.69;44.90;;
45651;Laerm;31365;48.858;8.530;2023-01-04T01:33:13;39.25;34.31;42.22;;
45651;Laerm;31365;48.858;8.530;2023-01-04T01:35:41;50.75;34.69;70.02;;
45651;Laerm;31365;48.858;8.530;2023-01-04T01:38:10;39.35;34.69;43.54;;
45651;Laerm;31365;48.858;8.530;2023-01-04T01:40:42;53.57;33.90;74.56;;
45651;Laerm;31365;48.858;8.530;2023-01-04T01:43:17;43.05;34.34;60.06;;
45651;Laerm;31365;48.858;8.530;2023-01-04T01:45:51;60.51;35.94;81.99;;
45651;Laerm;31365;48.858;8.530;2023-01-04T01:48:26;39.83;35.04;43.44;;
45651;Laerm;31365;48.858;8.530;2023-01-04T01:51:00;39.63;34.69;42.09;;
45651;Laerm;31365;48.858;8.530;2023-01-04T01:53:34;40.39;35.04;44.54;;
45651;Laerm;31365;48.858;8.530;2023-01-04T01:56:08;41.18;37.32;44.35;;
45651;Laerm;31365;48.858;8.530;2023-01-04T01:58:43;40.16;36.20;42.35;;
45651;Laerm;31365;48.858;8.530;2023-01-04T02:01:13;40.41;36.45;43.99;;
45651;Laerm;31365;48.858;8.530;2023-01-04T02:06:17;40.40;36.45;43.09;;
45651;Laerm;31365;48.858;8.530;2023-01-04T02:08:48;50.65;35.94;68.94;;
45651;Laerm;31365;48.858;8.530;2023-01-04T02:26:00;40.84;35.36;44.31;;
45651;Laerm;31365;48.858;8.530;2023-01-04T02:28:59;40.60;36.45;45.07;;
45651;Laerm;31365;48.858;8.530;2023-01-04T02:31:39;41.36;35.36;61.42;;
45651;Laerm;31365;48.858;8.530;2023-01-04T02:34:21;40.54;35.66;45.42;;
45651;Laerm;31365;48.858;8.530;2023-01-04T02:36:59;40.43;35.94;42.76;;
45651;Laerm;31365;48.858;8.530;2023-01-04T02:39:40;40.59;36.20;43.29;;
45651;Laerm;31365;48.858;8.530;2023-01-04T02:42:18;40.74;35.04;44.12;;
45651;Laerm;31365;48.858;8.530;2023-01-04T02:45:15;40.99;37.12;44.87;;
45651;Laerm;31365;48.858;8.530;2023-01-04T02:47:46;60.43;36.45;81.08;;
45651;Laerm;31365;48.858;8.530;2023-01-04T02:50:39;40.72;36.69;44.19;;
45651;Laerm;31365;48.858;8.530;2023-01-04T02:53:12;40.86;35.66;43.44;;
45651;Laerm;31365;48.858;8.530;2023-01-04T02:55:50;40.68;36.20;45.70;;
45651;Laerm;31365;48.858;8.530;2023-01-04T02:58:51;54.97;36.45;77.23;;
45651;Laerm;31365;48.858;8.530;2023-01-04T03:01:37;41.46;36.91;46.93;;
45651;Laerm;31365;48.858;8.530;2023-01-04T03:04:41;40.81;35.66;47.90;;
45651;Laerm;31365;48.858;8.530;2023-01-04T03:07:39;40.49;35.66;42.65;;
45651;Laerm;31365;48.858;8.530;2023-01-04T03:10:20;40.48;36.45;48.02;;
45651;Laerm;31365;48.858;8.530;2023-01-04T03:13:04;40.38;36.20;42.47;;
45651;Laerm;31365;48.858;8.530;2023-01-04T03:15:38;40.58;35.36;43.19;;
45651;Laerm;31365;48.858;8.530;2023-01-04T03:18:15;52.71;37.88;73.15;;
45651;Laerm;31365;48.858;8.530;2023-01-04T03:20:50;40.84;36.45;43.68;;
45651;Laerm;31365;48.858;8.530;2023-01-04T03:23:25;53.69;35.94;73.89;;
45651;Laerm;31365;48.858;8.530;2023-01-04T03:26:17;40.81;35.94;43.58;;
45651;Laerm;31365;48.858;8.530;2023-01-04T03:29:12;40.58;35.94;42.98;;
45651;Laerm;31365;48.858;8.530;2023-01-04T03:32:06;60.98;37.12;81.07;;
45651;Laerm;31365;48.858;8.530;2023-01-04T03:34:54;53.65;36.45;76.59;;
45651;Laerm;31365;48.858;8.530;2023-01-04T03:37:49;50.58;35.86;69.53;;
45651;Laerm;31365;48.858;8.530;2023-01-04T03:40:45;40.86;36.91;47.20;;
45651;Laerm;31365;48.858;8.530;2023-01-04T03:43:41;61.74;36.45;83.08;;
45651;Laerm;31365;48.858;8.530;2023-01-04T03:46:34;51.24;36.91;71.09;;
45651;Laerm;31365;48.858;8.530;2023-01-04T03:49:28;40.15;35.04;42.82;;
45651;Laerm;31365;48.858;8.530;2023-01-04T03:52:01;40.41;34.69;43.39;;
45651;Laerm;31365;48.858;8.530;2023-01-04T03:54:37;40.53;36.45;42.82;;
45651;Laerm;31365;48.858;8.530;2023-01-04T03:59:42;49.10;36.69;66.00;;
45651;Laerm;31365;48.858;8.530;2023-01-04T04:02:12;40.77;36.91;44.35;;
45651;Laerm;31365;48.858;8.530;2023-01-04T04:04:45;47.09;36.91;63.77;;
45651;Laerm;31365;48.858;8.530;2023-01-04T04:07:32;41.11;36.91;43.63;;
45651;Laerm;31365;48.858;8.530;2023-01-04T04:10:20;56.23;36.69;77.16;;
45651;Laerm;31365;48.858;8.530;2023-01-04T04:12:48;60.14;36.91;79.71;;
45651;Laerm;31365;48.858;8.530;2023-01-04T04:15:18;54.18;36.98;75.15;;
45651;Laerm;31365;48.858;8.530;2023-01-04T04:17:46;58.06;38.67;78.13;;
45651;Laerm;31365;48.858;8.530;2023-01-04T04:20:15;58.34;38.05;77.15;;
45651;Laerm;31365;48.858;8.530;2023-01-04T04:22:44;64.86;39.34;87.80;;
45651;Laerm;31365;48.858;8.530;2023-01-04T04:25:12;41.56;36.91;46.76;;
45651;Laerm;31365;48.858;8.530;2023-01-04T04:27:42;54.40;37.70;72.58;;
45651;Laerm;31365;48.858;8.530;2023-01-04T04:30:12;53.88;37.70;73.94;;
45651;Laerm;31365;48.858;8.530;2023-01-04T04:32:40;59.25;39.34;79.65;;
45651;Laerm;31365;48.858;8.530;2023-01-04T04:35:09;56.84;38.67;75.71;;
45651;Laerm;31365;48.858;8.530;2023-01-04T04:37:38;60.02;39.21;78.48;;
45651;Laerm;31365;48.858;8.530;2023-01-04T04:40:08;57.14;39.21;75.17;;
45651;Laerm;31365;48.858;8.530;2023-01-04T04:42:58;56.37;39.08;79.74;;
45651;Laerm;31365;48.858;8.530;2023-01-04T04:45:26;59.96;39.58;78.58;;
45651;Laerm;31365;48.858;8.530;2023-01-04T04:47:54;48.88;39.34;67.23;;
45651;Laerm;31365;48.858;8.530;2023-01-04T04:50:23;42.92;38.67;49.34;;
45651;Laerm;31365;48.858;8.530;2023-01-04T04:52:51;57.36;38.95;77.48;;
45651;Laerm;31365;48.858;8.530;2023-01-04T04:55:22;57.34;38.37;79.02;;
45651;Laerm;31365;48.858;8.530;2023-01-04T04:57:51;60.05;39.21;77.40;;
45651;Laerm;31365;48.858;8.530;2023-01-04T05:00:21;52.78;38.05;71.14;;
45651;Laerm;31365;48.858;8.530;2023-01-04T05:02:51;59.84;39.81;79.47;;
45651;Laerm;31365;48.858;8.530;2023-01-04T05:05:20;62.66;38.95;84.10;;
45651;Laerm;31365;48.858;8.530;2023-01-04T05:07:48;62.99;38.81;86.85;;
45651;Laerm;31365;48.858;8.530;2023-01-04T05:10:17;60.62;39.34;78.92;;
45651;Laerm;31365;48.858;8.530;2023-01-04T05:12:45;55.14;38.37;76.21;;
45651;Laerm;31365;48.858;8.530;2023-01-04T05:15:32;60.05;38.67;78.61;;
45651;Laerm;31365;48.858;8.530;2023-01-04T05:18:03;58.89;37.88;75.77;;
45651;Laerm;31365;48.858;8.530;2023-01-04T05:20:33;60.80;38.95;77.50;;
45651;Laerm;31365;48.858;8.530;2023-01-04T05:23:01;56.86;38.21;76.95;;
45651;Laerm;31365;48.858;8.530;2023-01-04T05:25:29;53.39;38.37;74.35;;
45651;Laerm;31365;48.858;8.530;2023-01-04T05:27:59;55.66;38.37;75.24;;
45651;Laerm;31365;48.858;8.530;2023-01-04T05:30:28;60.23;40.33;78.28;;
45651;Laerm;31365;48.858;8.530;2023-01-04T05:33:19;58.25;38.67;77.55;;
45651;Laerm;31365;48.858;8.530;2023-01-04T05:35:49;60.92;39.21;77.77;;
45651;Laerm;31365;48.858;8.530;2023-01-04T05:38:19;62.75;39.46;78.79;;
45651;Laerm;31365;48.858;8.530;2023-01-04T05:40:49;56.85;39.34;71.98;;
45651;Laerm;31365;48.858;8.530;2023-01-04T05:43:20;61.36;40.62;77.64;;
45651;Laerm;31365;48.858;8.530;2023-01-04T05:45:53;53.56;37.70;73.32;;
45651;Laerm;31365;48.858;8.530;2023-01-04T05:48:23;60.30;38.52;75.84;;
45651;Laerm;31365;48.858;8.530;2023-01-04T05:50:52;62.31;39.81;79.49;;
45651;Laerm;31365;48.858;8.530;2023-01-04T05:53:21;60.87;40.03;81.19;;
45651;Laerm;31365;48.858;8.530;2023-01-04T05:55:49;59.40;40.33;74.94;;
45651;Laerm;31365;48.858;8.530;2023-01-04T05:58:18;59.94;38.81;80.17;;
45651;Laerm;31365;48.858;8.530;2023-01-04T06:00:46;58.82;38.52;77.29;;
45651;Laerm;31365;48.858;8.530;2023-01-04T06:03:17;60.41;41.61;72.77;;
45651;Laerm;31365;48.858;8.530;2023-01-04T06:05:48;52.38;38.67;70.71;;
45651;Laerm;31365;48.858;8.530;2023-01-04T06:08:17;60.35;39.34;77.46;;
45651;Laerm;31365;48.858;8.530;2023-01-04T06:10:52;60.28;41.53;77.14;;
45651;Laerm;31365;48.858;8.530;2023-01-04T06:13:20;59.57;41.38;75.73;;
45651;Laerm;31365;48.858;8.530;2023-01-04T06:15:49;62.02;41.14;77.92;;
45651;Laerm;31365;48.858;8.530;2023-01-04T06:18:19;62.08;41.68;79.45;;
45651;Laerm;31365;48.858;8.530;2023-01-04T06:20:50;61.42;39.21;78.18;;
45651;Laerm;31365;48.858;8.530;2023-01-04T06:23:19;65.14;42.29;80.68;;
45651;Laerm;31365;48.858;8.530;2023-01-04T06:25:47;61.71;39.21;76.39;;
45651;Laerm;31365;48.858;8.530;2023-01-04T06:28:16;61.97;41.06;78.56;;
45651;Laerm;31365;48.858;8.530;2023-01-04T06:30:45;63.10;41.96;75.99;;
45651;Laerm;31365;48.858;8.530;2023-01-04T06:33:13;59.31;39.34;78.58;;
45651;Laerm;31365;48.858;8.530;2023-01-04T06:35:43;61.87;41.38;78.69;;
45651;Laerm;31365;48.858;8.530;2023-01-04T06:38:12;59.86;40.62;77.51;;
45651;Laerm;31365;48.858;8.530;2023-01-04T06:40:40;61.89;41.46;78.14;;
45651;Laerm;31365;48.858;8.530;2023-01-04T06:43:08;59.96;40.03;77.50;;
45651;Laerm;31365;48.858;8.530;2023-01-04T06:45:37;61.84;41.46;76.48;;
45651;Laerm;31365;48.858;8.530;2023-01-04T06:48:05;61.53;40.23;79.46;;
45651;Laerm;31365;48.858;8.530;2023-01-04T06:50:35;58.78;39.58;78.04;;
45651;Laerm;31365;48.858;8.530;2023-01-04T06:53:05;57.52;40.13;75.60;;
45651;Laerm;31365;48.858;8.530;2023-01-04T06:55:33;62.78;43.42;76.72;;
45651;Laerm;31365;48.858;8.530;2023-01-04T06:58:02;61.39;42.64;76.50;;
45651;Laerm;31365;48.858;8.530;2023-01-04T07:00:30;62.83;39.58;84.47;;
45651;Laerm;31365;48.858;8.530;2023-01-04T07:02:59;59.22;40.03;76.59;;
45651;Laerm;31365;48.858;8.530;2023-01-04T07:05:41;63.47;40.98;80.89;;
45651;Laerm;31365;48.858;8.530;2023-01-04T07:08:12;59.01;41.22;75.69;;
45651;Laerm;31365;48.858;8.530;2023-01-04T07:10:41;56.54;40.23;74.31;;
45651;Laerm;31365;48.858;8.530;2023-01-04T07:13:11;58.96;40.89;72.83;;
45651;Laerm;31365;48.858;8.530;2023-01-04T07:15:39;61.78;40.23;77.12;;
45651;Laerm;31365;48.858;8.530;2023-01-04T07:18:08;63.25;41.46;81.15;;
45651;Laerm;31365;48.858;8.530;2023-01-04T07:20:38;60.14;41.26;75.08;;
45651;Laerm;31365;48.858;8.530;2023-01-04T07:23:07;60.19;40.80;75.16;;
45651;Laerm;31365;48.858;8.530;2023-01-04T07:25:37;62.46;42.71;78.03;;
45651;Laerm;31365;48.858;8.530;2023-01-04T07:28:06;60.28;41.53;78.60;;
45651;Laerm;31365;48.858;8.530;2023-01-04T07:30:34;58.95;40.71;75.20;;
45651;Laerm;31365;48.858;8.530;2023-01-04T07:33:03;61.23;40.33;78.46;;
45651;Laerm;31365;48.858;8.530;2023-01-04T07:35:32;61.03;41.46;76.42;;
45651;Laerm;31365;48.858;8.530;2023-01-04T07:38:01;58.68;40.43;75.15;;
45651;Laerm;31365;48.858;8.530;2023-01-04T07:40:30;57.14;39.21;75.24;;
45651;Laerm;31365;48.858;8.530;2023-01-04T07:42:59;63.00;41.22;83.16;;
45651;Laerm;31365;48.858;8.530;2023-01-04T07:45:28;61.58;42.93;76.77;;
45651;Laerm;31365;48.858;8.530;2023-01-04T07:47:57;61.76;42.53;77.26;;
45651;Laerm;31365;48.858;8.530;2023-01-04T07:50:25;58.32;41.53;74.41;;
45651;Laerm;31365;48.858;8.530;2023-01-04T07:52:54;60.83;41.46;73.19;;
45651;Laerm;31365;48.858;8.530;2023-01-04T07:55:23;63.43;40.13;77.86;;
45651;Laerm;31365;48.858;8.530;2023-01-04T07:57:52;61.25;42.16;74.72;;
45651;Laerm;31365;48.858;8.530;2023-01-04T08:00:22;58.22;40.53;74.34;;
45651;Laerm;31365;48.858;8.530;2023-01-04T08:05:19;61.26;41.14;79.02;;
45651;Laerm;31365;48.858;8.530;2023-01-04T08:07:51;64.12;40.03;90.23;;
45651;Laerm;31365;48.858;8.530;2023-01-04T08:10:20;61.64;44.03;79.19;;
45651;Laerm;31365;48.858;8.530;2023-01-04T08:12:49;63.33;43.39;78.47;;
45651;Laerm;31365;48.858;8.530;2023-01-04T08:15:17;59.57;41.06;76.07;;
45651;Laerm;31365;48.858;8.530;2023-01-04T08:17:47;59.34;42.03;73.24;;
45651;Laerm;31365;48.858;8.530;2023-01-04T08:20:18;60.19;41.68;77.75;;
45651;Laerm;31365;48.858;8.530;2023-01-04T08:22:47;60.76;39.58;78.76;;
45651;Laerm;31365;48.858;8.530;2023-01-04T08:25:16;62.13;42.65;76.54;;
45651;Laerm;31365;48.858;8.530;2023-01-04T08:27:45;61.91;43.09;76.40;;
45651;Laerm;31365;48.858;8.530;2023-01-04T08:30:13;59.27;41.53;76.82;;
45651;Laerm;31365;48.858;8.530;2023-01-04T08:32:42;59.41;41.06;74.83;;
45651;Laerm;31365;48.858;8.530;2023-01-04T08:35:12;64.98;42.53;80.80;;
45651;Laerm;31365;48.858;8.530;2023-01-04T08:37:40;62.82;40.62;76.69;;
45651;Laerm;31365;48.858;8.530;2023-01-04T08:40:10;59.67;41.38;75.11;;
45651;Laerm;31365;48.858;8.530;2023-01-04T08:42:40;61.11;41.14;77.06;;
45651;Laerm;31365;48.858;8.530;2023-01-04T08:45:09;61.79;41.61;77.66;;
45651;Laerm;31365;48.858;8.530;2023-01-04T08:47:38;60.85;40.71;75.75;;
45651;Laerm;31365;48.858;8.530;2023-01-04T08:50:07;63.08;42.22;76.45;;
45651;Laerm;31365;48.858;8.530;2023-01-04T08:52:38;57.33;40.43;73.63;;
45651;Laerm;31365;48.858;8.530;2023-01-04T08:55:07;57.76;41.89;77.61;;
45651;Laerm;31365;48.858;8.530;2023-01-04T08:57:39;61.33;41.96;76.29;;
45651;Laerm;31365;48.858;8.530;2023-01-04T09:00:09;62.22;43.09;76.84;;
45651;Laerm;31365;48.858;8.530;2023-01-04T09:02:37;60.29;41.53;75.53;;
45651;Laerm;31365;48.858;8.530;2023-01-04T09:05:07;62.84;40.03;75.58;;
45651;Laerm;31365;48.858;8.530;2023-01-04T09:07:37;64.48;41.89;79.54;;
45651;Laerm;31365;48.858;8.530;2023-01-04T09:10:07;61.69;41.30;77.55;;
45651;Laerm;31365;48.858;8.530;2023-01-04T09:12:36;60.70;39.92;82.43;;
45651;Laerm;31365;48.858;8.530;2023-01-04T09:15:06;62.59;40.71;79.63;;
45651;Laerm;31365;48.858;8.530;2023-01-04T09:17:34;62.46;41.96;76.43;;
45651;Laerm;31365;48.858;8.530;2023-01-04T09:20:23;60.13;40.71;77.66;;
45651;Laerm;31365;48.858;8.530;2023-01-04T09:22:55;62.25;40.43;76.03;;
45651;Laerm;31365;48.858;8.530;2023-01-04T09:25:24;63.43;40.62;76.88;;
45651;Laerm;31365;48.858;8.530;2023-01-04T09:27:52;60.03;42.93;76.20;;
45651;Laerm;31365;48.858;8.530;2023-01-04T09:30:22;59.88;41.22;74.30;;
45651;Laerm;31365;48.858;8.530;2023-01-04T09:32:53;61.75;42.76;77.81;;
45651;Laerm;31365;48.858;8.530;2023-01-04T09:35:21;63.03;41.46;75.35;;
45651;Laerm;31365;48.858;8.530;2023-01-04T09:37:50;62.99;44.19;75.49;;
45651;Laerm;31365;48.858;8.530;2023-01-04T09:40:26;62.99;44.19;75.49;;
45651;Laerm;31365;48.858;8.530;2023-01-04T09:42:59;62.06;41.06;75.27;;
45651;Laerm;31365;48.858;8.530;2023-01-04T09:45:53;68.13;42.59;86.14;;
45651;Laerm;31365;48.858;8.530;2023-01-04T09:48:29;59.94;39.92;76.76;;
45651;Laerm;31365;48.858;8.530;2023-01-04T09:51:04;60.71;41.53;76.80;;
45651;Laerm;31365;48.858;8.530;2023-01-04T09:53:38;61.96;42.35;75.62;;
45651;Laerm;31365;48.858;8.530;2023-01-04T09:56:21;62.01;43.54;78.12;;
45651;Laerm;31365;48.858;8.530;2023-01-04T09:58:52;59.76;40.80;74.29;;
45651;Laerm;31365;48.858;8.530;2023-01-04T10:01:24;60.28;42.47;76.13;;
45651;Laerm;31365;48.858;8.530;2023-01-04T10:04:04;61.54;43.19;77.84;;
45651;Laerm;31365;48.858;8.530;2023-01-04T10:06:36;65.30;44.03;80.60;;
45651;Laerm;31365;48.858;8.530;2023-01-04T10:09:11;60.30;42.88;76.25;;
45651;Laerm;31365;48.858;8.530;2023-01-04T10:12:05;61.49;41.75;75.81;;
45651;Laerm;31365;48.858;8.530;2023-01-04T10:15:01;61.26;41.68;76.25;;
45651;Laerm;31365;48.858;8.530;2023-01-04T10:17:48;60.03;40.43;75.01;;
45651;Laerm;31365;48.858;8.530;2023-01-04T10:21:15;62.65;43.33;80.18;;
45651;Laerm;31365;48.858;8.530;2023-01-04T10:24:31;62.01;40.23;76.34;;
45651;Laerm;31365;48.858;8.530;2023-01-04T10:27:06;61.92;43.04;79.17;;
45651;Laerm;31365;48.858;8.530;2023-01-04T10:29:51;62.96;40.33;76.83;;
45651;Laerm;31365;48.858;8.530;2023-01-04T10:32:35;64.32;44.23;79.88;;
45651;Laerm;31365;48.858;8.530;2023-01-04T10:35:18;59.59;41.38;78.57;;
45651;Laerm;31365;48.858;8.530;2023-01-04T10:37:51;63.40;42.03;78.09;;
45651;Laerm;31365;48.858;8.530;2023-01-04T10:40:22;60.40;43.54;75.58;;
45651;Laerm;31365;48.858;8.530;2023-01-04T10:43:01;62.52;42.09;78.63;;
45651;Laerm;31365;48.858;8.530;2023-01-04T10:45:42;62.55;41.14;80.00;;
45651;Laerm;31365;48.858;8.530;2023-01-04T10:48:23;61.86;42.93;76.20;;
45651;Laerm;31365;48.858;8.530;2023-01-04T10:50:56;62.47;41.46;77.17;;
45651;Laerm;31365;48.858;8.530;2023-01-04T10:53:40;60.40;41.06;78.00;;
45651;Laerm;31365;48.858;8.530;2023-01-04T10:56:20;61.97;41.06;81.32;;
45651;Laerm;31365;48.858;8.530;2023-01-04T10:59:03;63.98;42.69;79.17;;
45651;Laerm;31365;48.858;8.530;2023-01-04T11:01:40;62.27;43.34;78.18;;
45651;Laerm;31365;48.858;8.530;2023-01-04T11:04:17;61.62;42.47;77.17;;
45651;Laerm;31365;48.858;8.530;2023-01-04T11:06:53;62.79;43.72;80.12;;
45651;Laerm;31365;48.858;8.530;2023-01-04T11:09:28;60.84;42.16;76.07;;
45651;Laerm;31365;48.858;8.530;2023-01-04T11:12:02;60.86;43.24;76.45;;
45651;Laerm;31365;48.858;8.530;2023-01-04T11:14:35;61.11;42.03;82.59;;
45651;Laerm;31365;48.858;8.530;2023-01-04T11:17:06;62.28;42.03;81.11;;
45651;Laerm;31365;48.858;8.530;2023-01-04T11:22:13;61.59;41.53;83.16;;
45651;Laerm;31365;48.858;8.530;2023-01-04T11:24:46;62.56;41.53;77.67;;
45651;Laerm;31365;48.858;8.530;2023-01-04T11:27:44;60.93;42.03;75.80;;
45651;Laerm;31365;48.858;8.530;2023-01-04T11:30:20;63.43;42.35;86.44;;
45651;Laerm;31365;48.858;8.530;2023-01-04T11:32:56;60.67;42.47;85.23;;
45651;Laerm;31365;48.858;8.530;2023-01-04T11:35:39;61.66;41.14;77.25;;
45651;Laerm;31365;48.858;8.530;2023-01-04T11:38:13;59.48;41.14;79.15;;
45651;Laerm;31365;48.858;8.530;2023-01-04T11:40:58;61.99;42.03;76.93;;
45651;Laerm;31365;48.858;8.530;2023-01-04T11:43:29;63.18;41.68;77.87;;
45651;Laerm;31365;48.858;8.530;2023-01-04T11:46:06;60.29;41.96;74.84;;
45651;Laerm;31365;48.858;8.530;2023-01-04T11:48:39;59.94;42.03;74.69;;
45651;Laerm;31365;48.858;8.530;2023-01-04T11:51:20;60.58;43.19;81.32;;
45651;Laerm;31365;48.858;8.530;2023-01-04T11:54:02;58.95;42.41;74.40;;
45651;Laerm;31365;48.858;8.530;2023-01-04T11:56:35;63.86;43.81;83.50;;
45651;Laerm;31365;48.858;8.530;2023-01-04T11:59:11;60.24;41.96;82.83;;
45651;Laerm;31365;48.858;8.530;2023-01-04T12:02:21;63.61;43.68;80.76;;
45651;Laerm;31365;48.858;8.530;2023-01-04T12:05:19;63.18;45.91;77.77;;
45651;Laerm;31365;48.858;8.530;2023-01-04T12:08:27;64.38;42.06;85.83;;
45651;Laerm;31365;48.858;8.530;2023-01-04T12:10:58;65.01;43.68;77.95;;
45651;Laerm;31365;48.858;8.530;2023-01-04T12:13:28;61.02;43.68;74.87;;
45651;Laerm;31365;48.858;8.530;2023-01-04T12:18:38;63.15;44.39;77.07;;
45651;Laerm;31365;48.858;8.530;2023-01-04T12:21:17;63.10;43.68;79.70;;
45651;Laerm;31365;48.858;8.530;2023-01-04T12:23:47;66.60;41.82;87.31;;
45651;Laerm;31365;48.858;8.530;2023-01-04T12:26:16;61.89;42.76;76.52;;
45651;Laerm;31365;48.858;8.530;2023-01-04T12:28:48;63.40;41.30;79.81;;
45651;Laerm;31365;48.858;8.530;2023-01-04T12:31:29;60.65;42.03;76.34;;
45651;Laerm;31365;48.858;8.530;2023-01-04T12:34:40;62.59;40.71;80.68;;
45651;Laerm;31365;48.858;8.530;2023-01-04T12:40:54;59.92;41.30;79.60;;
45651;Laerm;31365;48.858;8.530;2023-01-04T12:43:35;60.93;41.68;87.83;;
45651;Laerm;31365;48.858;8.530;2023-01-04T12:46:40;60.92;42.98;83.19;;
45651;Laerm;31365;48.858;8.530;2023-01-04T12:49:50;61.43;42.59;80.71;;
45651;Laerm;31365;48.858;8.530;2023-01-04T12:52:40;62.35;42.03;80.65;;
45651;Laerm;31365;48.858;8.530;2023-01-04T12:55:57;62.54;41.38;77.09;;
45651;Laerm;31365;48.858;8.530;2023-01-04T12:58:42;63.19;44.31;83.06;;
45651;Laerm;31365;48.858;8.530;2023-01-04T13:02:19;63.22;42.22;83.05;;
45651;Laerm;31365;48.858;8.530;2023-01-04T13:04:51;61.97;43.49;77.67;;
45651;Laerm;31365;48.858;8.530;2023-01-04T13:07:43;61.62;43.29;75.87;;
45651;Laerm;31365;48.858;8.530;2023-01-04T13:10:26;63.94;42.71;84.72;;
45651;Laerm;31365;48.858;8.530;2023-01-04T13:13:24;62.65;43.34;76.27;;
45651;Laerm;31365;48.858;8.530;2023-01-04T13:16:11;64.05;42.16;81.49;;
45651;Laerm;31365;48.858;8.530;2023-01-04T13:18:47;61.35;41.30;76.57;;
45651;Laerm;31365;48.858;8.530;2023-01-04T13:21:26;60.82;42.59;78.74;;
45651;Laerm;31365;48.858;8.530;2023-01-04T13:23:59;62.56;42.71;76.82;;
45651;Laerm;31365;48.858;8.530;2023-01-04T13:26:35;62.25;43.86;77.01;;
45651;Laerm;31365;48.858;8.530;2023-01-04T13:29:16;61.51;43.04;76.49;;
45651;Laerm;31365;48.858;8.530;2023-01-04T13:31:50;64.85;42.22;81.95;;
45651;Laerm;31365;48.858;8.530;2023-01-04T13:34:25;63.69;42.53;76.80;;
45651;Laerm;31365;48.858;8.530;2023-01-04T13:37:14;61.71;43.04;75.25;;
45651;Laerm;31365;48.858;8.530;2023-01-04T13:39:46;61.63;42.29;78.70;;
45651;Laerm;31365;48.858;8.530;2023-01-04T13:42:24;63.38;41.89;79.70;;
45651;Laerm;31365;48.858;8.530;2023-01-04T13:45:38;62.36;41.89;79.19;;
45651;Laerm;31365;48.858;8.530;2023-01-04T13:48:11;61.60;42.47;77.68;;
45651;Laerm;31365;48.858;8.530;2023-01-04T14:05:19;62.68;43.77;77.46;;
45651;Laerm;31365;48.858;8.530;2023-01-04T14:07:48;61.72;42.41;74.28;;
45651;Laerm;31365;48.858;8.530;2023-01-04T14:10:18;62.93;41.38;78.70;;
45651;Laerm;31365;48.858;8.530;2023-01-04T14:12:46;63.21;42.59;76.71;;
45651;Laerm;31365;48.858;8.530;2023-01-04T14:15:20;61.86;42.47;79.63;;
45651;Laerm;31365;48.858;8.530;2023-01-04T14:17:52;62.08;42.88;77.10;;
45651;Laerm;31365;48.858;8.530;2023-01-04T14:20:43;62.76;42.35;79.32;;
45651;Laerm;31365;48.858;8.530;2023-01-04T14:23:31;64.90;46.25;78.18;;
45651;Laerm;31365;48.858;8.530;2023-01-04T14:26:00;58.40;42.47;73.85;;
45651;Laerm;31365;48.858;8.530;2023-01-04T14:28:35;60.76;41.82;74.82;;
45651;Laerm;31365;48.858;8.530;2023-01-04T14:31:34;60.27;42.29;79.49;;
45651;Laerm;31365;48.858;8.530;2023-01-04T14:34:09;62.48;43.09;74.73;;
45651;Laerm;31365;48.858;8.530;2023-01-04T14:36:42;63.10;42.53;79.22;;
45651;Laerm;31365;48.858;8.530;2023-01-04T14:39:38;62.01;43.24;80.97;;
45651;Laerm;31365;48.858;8.530;2023-01-04T14:42:24;65.82;43.19;85.27;;
45651;Laerm;31365;48.858;8.530;2023-01-04T14:44:54;61.16;43.77;75.11;;
45651;Laerm;31365;48.858;8.530;2023-01-04T14:47:22;62.95;43.14;83.84;;
45651;Laerm;31365;48.858;8.530;2023-01-04T14:49:50;62.63;42.35;79.51;;
45651;Laerm;31365;48.858;8.530;2023-01-04T14:52:22;62.68;43.34;77.97;;
45651;Laerm;31365;48.858;8.530;2023-01-04T14:54:51;63.22;44.39;78.15;;
45651;Laerm;31365;48.858;8.530;2023-01-04T14:57:20;64.39;46.33;80.09;;
45651;Laerm;31365;48.858;8.530;2023-01-04T14:59:48;61.59;43.14;77.11;;
45651;Laerm;31365;48.858;8.530;2023-01-04T15:02:17;66.10;44.54;81.11;;
45651;Laerm;31365;48.858;8.530;2023-01-04T15:04:46;65.98;44.03;78.54;;
45651;Laerm;31365;48.858;8.530;2023-01-04T15:07:32;61.87;42.09;76.89;;
45651;Laerm;31365;48.858;8.530;2023-01-04T15:10:04;64.26;43.04;78.39;;
45651;Laerm;31365;48.858;8.530;2023-01-04T15:12:33;61.67;41.75;81.23;;
45651;Laerm;31365;48.858;8.530;2023-01-04T15:15:02;59.10;41.46;76.53;;
45651;Laerm;31365;48.858;8.530;2023-01-04T15:17:30;64.59;47.79;78.14;;
45651;Laerm;31365;48.858;8.530;2023-01-04T15:19:59;59.08;41.96;79.72;;
45651;Laerm;31365;48.858;8.530;2023-01-04T15:22:31;65.63;43.24;95.81;;
45651;Laerm;31365;48.858;8.530;2023-01-04T15:25:00;61.35;43.24;74.61;;
45651;Laerm;31365;48.858;8.530;2023-01-04T15:27:29;63.84;43.99;77.23;;
45651;Laerm;31365;48.858;8.530;2023-01-04T15:30:05;62.43;43.29;76.57;;
45651;Laerm;31365;48.858;8.530;2023-01-04T15:32:34;59.50;43.39;78.02;;
45651;Laerm;31365;48.858;8.530;2023-01-04T15:35:04;62.28;42.93;75.06;;
45651;Laerm;31365;48.858;8.530;2023-01-04T15:37:35;60.38;42.53;74.94;;
45651;Laerm;31365;48.858;8.530;2023-01-04T15:40:04;64.64;42.93;80.76;;